createdAt,value
2019-04-07T00:00:09.341Z,79.27
2019-04-07T00:01:09.360Z,78.75
2019-04-07T00:02:09.326Z,79.37
2019-04-07T00:03:09.314Z,79.68
2019-04-07T00:04:09.335Z,79.98
2019-04-07T00:05:13.581Z,79.57
2019-04-07T00:06:09.683Z,78.41
2019-04-07T00:07:09.316Z,78.11
2019-04-07T00:08:09.244Z,78.20
2019-04-07T00:09:09.715Z,78.41
2019-04-07T00:10:09.852Z,78.31
2019-04-07T00:11:09.414Z,78.31
2019-04-07T00:12:09.522Z,79.33
2019-04-07T00:13:09.196Z,80.39
2019-04-07T00:14:09.181Z,80.19
2019-04-07T00:15:09.202Z,79.98
2019-04-07T00:16:09.786Z,80.19
2019-04-07T00:17:09.344Z,79.37
2019-04-07T00:18:09.193Z,80.08
2019-04-07T00:19:09.131Z,80.43
2019-04-07T00:20:09.132Z,80.43
2019-04-07T00:21:09.102Z,80.33
2019-04-07T00:22:09.180Z,80.63
2019-04-07T00:23:09.601Z,80.53
2019-04-07T00:24:09.244Z,80.22
2019-04-07T00:25:09.069Z,81.15
2019-04-07T00:26:09.753Z,81.35
2019-04-07T00:27:09.109Z,81.35
2019-04-07T00:28:09.035Z,81.56
2019-04-07T00:29:09.045Z,80.83
2019-04-07T00:30:09.006Z,80.94
2019-04-07T00:31:09.004Z,80.83
2019-04-07T00:32:09.007Z,81.15
2019-04-07T00:33:08.986Z,81.65
2019-04-07T00:34:09.630Z,82.07
2019-04-07T00:35:08.996Z,83.29
2019-04-07T00:36:09.569Z,83.09
2019-04-07T00:37:09.041Z,82.48
2019-04-07T00:38:09.546Z,83.44
2019-04-07T00:39:09.476Z,83.23
2019-04-07T00:40:09.583Z,83.54
2019-04-07T00:41:09.528Z,82.82
2019-04-07T00:42:09.421Z,82.21
2019-04-07T00:43:08.864Z,81.24
2019-04-07T00:44:08.872Z,81.04
2019-04-07T00:45:08.931Z,80.94
2019-04-07T00:46:08.882Z,79.50
2019-04-07T00:47:09.420Z,79.78
2019-04-07T00:48:09.049Z,80.08
2019-04-07T00:49:09.469Z,80.08
2019-04-07T00:50:08.839Z,80.08
2019-04-07T00:51:08.794Z,80.53
2019-04-07T00:52:09.407Z,80.19
2019-04-07T00:53:08.885Z,80.19
2019-04-07T00:54:09.304Z,79.98
2019-04-07T00:55:08.905Z,81.01
2019-04-07T00:56:09.307Z,81.45
2019-04-07T00:57:08.720Z,81.24
2019-04-07T00:58:08.794Z,81.86
2019-04-07T00:59:08.847Z,82.37
2019-04-07T01:00:08.691Z,83.13
2019-04-07T01:01:09.103Z,82.62
2019-04-07T01:02:09.061Z,83.09
2019-04-07T01:03:08.716Z,83.23
2019-04-07T01:04:08.940Z,82.82
2019-04-07T01:05:08.642Z,82.78
2019-04-07T01:06:08.728Z,83.70
2019-04-07T01:07:09.119Z,83.03
2019-04-07T01:08:08.607Z,84.05
2019-04-07T01:09:09.151Z,83.33
2019-04-07T01:10:08.735Z,83.84
2019-04-07T01:11:08.863Z,83.54
2019-04-07T01:12:09.376Z,84.66
2019-04-07T01:13:08.576Z,84.87
2019-04-07T01:14:09.337Z,85.01
2019-04-07T01:15:08.687Z,85.52
2019-04-07T01:16:08.513Z,85.42
2019-04-07T01:17:08.552Z,85.46
2019-04-07T01:18:08.785Z,85.42
2019-04-07T01:19:08.820Z,85.52
2019-04-07T01:20:09.010Z,85.42
2019-04-07T01:21:08.445Z,85.01
2019-04-07T01:22:09.032Z,84.91
2019-04-07T01:23:08.436Z,84.80
2019-04-07T01:24:08.785Z,84.29
2019-04-07T01:25:08.960Z,84.56
2019-04-07T01:26:08.572Z,83.19
2019-04-07T01:27:08.390Z,82.98
2019-04-07T01:28:08.397Z,81.65
2019-04-07T01:29:08.387Z,81.76
2019-04-07T01:30:08.350Z,81.76
2019-04-07T01:31:08.794Z,82.07
2019-04-07T01:32:08.775Z,83.29
2019-04-07T01:33:08.725Z,82.48
2019-04-07T01:34:08.380Z,83.23
2019-04-07T01:35:08.294Z,83.64
2019-04-07T01:36:08.343Z,83.74
2019-04-07T01:37:08.765Z,83.98
2019-04-07T01:38:08.272Z,84.60
2019-04-07T01:39:08.706Z,84.80
2019-04-07T01:40:08.239Z,84.95
2019-04-07T01:41:08.224Z,85.15
2019-04-07T01:42:08.237Z,85.97
2019-04-07T01:43:08.500Z,86.38
2019-04-07T01:44:08.194Z,85.97
2019-04-07T01:45:08.194Z,86.07
2019-04-07T01:46:08.856Z,86.38
2019-04-07T01:47:08.835Z,86.69
2019-04-07T01:48:08.808Z,86.48
2019-04-07T01:49:10.127Z,85.83
2019-04-07T01:50:08.214Z,84.80
2019-04-07T01:51:08.175Z,83.84
2019-04-07T01:52:08.357Z,83.03
2019-04-07T01:53:08.121Z,82.92
2019-04-07T01:54:08.644Z,81.29
2019-04-07T01:55:08.075Z,80.98
2019-04-07T01:56:08.065Z,81.29
2019-04-07T01:57:08.051Z,81.90
2019-04-07T01:58:08.065Z,81.08
2019-04-07T01:59:10.511Z,80.26
2019-04-07T02:00:08.395Z,80.88
2019-04-07T02:01:08.138Z,80.12
2019-04-07T02:02:08.115Z,79.96
2019-04-07T02:03:08.002Z,79.64
2019-04-07T02:04:08.164Z,80.05
2019-04-07T02:05:08.254Z,79.75
2019-04-07T02:06:07.948Z,79.64
2019-04-07T02:07:08.177Z,79.85
2019-04-07T02:08:07.928Z,79.24
2019-04-07T02:09:08.244Z,79.24
2019-04-07T02:10:08.682Z,79.24
2019-04-07T02:11:07.951Z,78.52
2019-04-07T02:12:07.900Z,77.80
2019-04-07T02:13:08.485Z,78.89
2019-04-07T02:14:08.658Z,79.20
2019-04-07T02:15:08.514Z,79.34
2019-04-07T02:16:08.144Z,79.64
2019-04-07T02:17:07.825Z,79.54
2019-04-07T02:18:08.011Z,79.13
2019-04-07T02:19:08.680Z,79.54
2019-04-07T02:20:07.936Z,78.93
2019-04-07T02:21:08.452Z,78.72
2019-04-07T02:22:07.807Z,78.83
2019-04-07T02:23:08.547Z,78.21
2019-04-07T02:24:08.053Z,78.52
2019-04-07T02:25:07.747Z,79.03
2019-04-07T02:26:08.187Z,79.24
2019-04-07T02:27:07.729Z,79.03
2019-04-07T02:28:07.713Z,78.52
2019-04-07T02:29:08.014Z,79.17
2019-04-07T02:30:07.888Z,78.52
2019-04-07T02:31:08.119Z,78.83
2019-04-07T02:32:08.000Z,78.63
2019-04-07T02:33:08.453Z,78.52
2019-04-07T02:34:07.640Z,79.17
2019-04-07T02:35:08.482Z,78.42
2019-04-07T02:36:17.996Z,78.31
2019-04-07T02:37:08.635Z,78.42
2019-04-07T02:38:08.274Z,79.24
2019-04-07T02:39:07.590Z,78.63
2019-04-07T02:40:07.611Z,78.42
2019-04-07T02:41:08.834Z,78.83
2019-04-07T02:42:07.566Z,78.83
2019-04-07T02:43:08.431Z,78.83
2019-04-07T02:44:07.630Z,78.52
2019-04-07T02:45:07.645Z,78.93
2019-04-07T02:46:07.508Z,78.89
2019-04-07T02:47:08.224Z,79.91
2019-04-07T02:48:07.484Z,79.71
2019-04-07T02:49:08.186Z,80.26
2019-04-07T02:50:07.465Z,79.96
2019-04-07T02:51:07.748Z,79.00
2019-04-07T02:52:07.641Z,78.75
2019-04-07T02:53:07.661Z,79.30
2019-04-07T02:54:07.797Z,78.89
2019-04-07T02:55:07.417Z,79.20
2019-04-07T02:56:08.121Z,79.50
2019-04-07T02:57:08.001Z,79.82
2019-04-07T02:58:07.803Z,80.36
2019-04-07T02:59:07.913Z,80.67
2019-04-07T03:00:07.665Z,81.01
2019-04-07T03:01:07.345Z,81.12
2019-04-07T03:02:08.192Z,80.81
2019-04-07T03:03:07.318Z,80.09
2019-04-07T03:04:07.469Z,80.91
2019-04-07T03:05:08.172Z,80.51
2019-04-07T03:06:07.294Z,81.22
2019-04-07T03:07:07.278Z,81.22
2019-04-07T03:08:07.786Z,81.01
2019-04-07T03:09:07.531Z,81.12
2019-04-07T03:10:07.692Z,81.26
2019-04-07T03:11:07.591Z,80.91
2019-04-07T03:12:07.372Z,80.51
2019-04-07T03:13:07.305Z,80.85
2019-04-07T03:14:07.244Z,81.05
2019-04-07T03:15:07.190Z,81.36
2019-04-07T03:16:07.621Z,81.57
2019-04-07T03:17:08.190Z,81.36
2019-04-07T03:18:07.151Z,81.15
2019-04-07T03:19:07.155Z,81.57
2019-04-07T03:20:07.141Z,81.26
2019-04-07T03:21:07.670Z,81.05
2019-04-07T03:22:07.108Z,81.20
2019-04-07T03:23:07.303Z,81.81
2019-04-07T03:24:07.839Z,81.40
2019-04-07T03:25:07.145Z,81.09
2019-04-07T03:26:07.876Z,80.03
2019-04-07T03:27:08.052Z,79.93
2019-04-07T03:28:07.041Z,79.93
2019-04-07T03:29:07.051Z,79.52
2019-04-07T03:30:07.027Z,79.93
2019-04-07T03:31:07.239Z,79.72
2019-04-07T03:32:08.509Z,78.80
2019-04-07T03:33:11.080Z,78.70
2019-04-07T03:34:09.323Z,78.90
2019-04-07T03:35:07.417Z,78.49
2019-04-07T03:36:10.763Z,77.12
2019-04-07T03:37:21.773Z,77.12
2019-04-07T03:38:07.929Z,74.56
2019-04-07T03:39:06.918Z,74.11
2019-04-07T03:40:06.913Z,75.24
2019-04-07T03:41:07.305Z,75.24
2019-04-07T03:42:06.886Z,75.24
2019-04-07T03:43:07.125Z,75.89
2019-04-07T03:44:07.743Z,76.20
2019-04-07T03:45:06.851Z,77.12
2019-04-07T03:46:07.761Z,77.43
2019-04-07T03:47:07.240Z,77.87
2019-04-07T03:48:07.069Z,78.28
2019-04-07T03:49:07.258Z,77.87
2019-04-07T03:50:07.175Z,78.59
2019-04-07T03:51:06.900Z,78.63
2019-04-07T03:52:07.104Z,78.32
2019-04-07T03:53:06.781Z,78.42
2019-04-07T03:54:07.178Z,78.42
2019-04-07T03:55:06.851Z,78.46
2019-04-07T03:56:06.735Z,78.63
2019-04-07T03:57:07.007Z,78.83
2019-04-07T03:58:07.875Z,76.89
2019-04-07T03:59:07.434Z,77.40
2019-04-07T04:00:06.694Z,76.99
2019-04-07T04:01:06.693Z,77.50
2019-04-07T04:02:06.812Z,77.23
2019-04-07T04:03:06.765Z,77.40
2019-04-07T04:04:07.406Z,78.46
2019-04-07T04:05:06.928Z,77.64
2019-04-07T04:06:06.897Z,77.64
2019-04-07T04:07:20.345Z,78.50
2019-04-07T04:08:07.595Z,78.91
2019-04-07T04:09:06.598Z,78.50
2019-04-07T04:10:06.758Z,78.81
2019-04-07T04:11:06.561Z,79.11
2019-04-07T04:12:07.210Z,78.16
2019-04-07T04:13:07.054Z,77.33
2019-04-07T04:14:06.527Z,77.74
2019-04-07T04:15:06.907Z,77.84
2019-04-07T04:16:06.507Z,78.70
2019-04-07T04:17:06.502Z,78.39
2019-04-07T04:18:06.647Z,77.23
2019-04-07T04:19:06.830Z,76.62
2019-04-07T04:20:06.554Z,75.45
2019-04-07T04:21:07.021Z,75.76
2019-04-07T04:22:07.425Z,75.56
2019-04-07T04:23:06.435Z,75.04
2019-04-07T04:24:06.422Z,75.52
2019-04-07T04:25:06.415Z,75.76
2019-04-07T04:26:06.539Z,75.04
2019-04-07T04:27:06.805Z,75.35
2019-04-07T04:28:06.672Z,74.80
2019-04-07T04:29:06.357Z,74.90
2019-04-07T04:30:06.974Z,75.66
2019-04-07T04:31:06.749Z,75.56
2019-04-07T04:32:06.329Z,75.66
2019-04-07T04:33:06.352Z,76.20
2019-04-07T04:34:06.313Z,76.37
2019-04-07T04:35:06.632Z,76.92
2019-04-07T04:36:06.312Z,77.03
2019-04-07T04:37:06.273Z,76.82
2019-04-07T04:38:06.284Z,77.33
2019-04-07T04:39:06.542Z,77.44
2019-04-07T04:40:07.177Z,77.23
2019-04-07T04:41:06.897Z,78.46
2019-04-07T04:42:07.023Z,78.67
2019-04-07T04:43:06.207Z,78.77
2019-04-07T04:44:06.648Z,78.16
2019-04-07T04:45:06.332Z,77.54
2019-04-07T04:46:09.391Z,77.44
2019-04-07T04:47:06.161Z,76.82
2019-04-07T04:48:06.753Z,75.96
2019-04-07T04:49:06.669Z,76.27
2019-04-07T04:50:06.724Z,76.27
2019-04-07T04:51:06.649Z,76.78
2019-04-07T04:52:06.106Z,77.13
2019-04-07T04:53:06.230Z,76.58
2019-04-07T04:54:07.002Z,77.29
2019-04-07T04:55:07.060Z,77.23
2019-04-07T04:56:06.066Z,77.44
2019-04-07T04:57:08.025Z,75.86
2019-04-07T04:58:06.037Z,75.86
2019-04-07T04:59:06.083Z,75.86
2019-04-07T05:00:06.219Z,75.86
2019-04-07T05:01:06.372Z,76.48
2019-04-07T05:02:05.997Z,77.23
2019-04-07T05:03:05.989Z,77.29
2019-04-07T05:04:06.303Z,76.51
2019-04-07T05:05:09.002Z,77.09
2019-04-07T05:06:06.682Z,77.81
2019-04-07T05:07:05.963Z,77.74
2019-04-07T05:08:06.809Z,78.56
2019-04-07T05:09:06.823Z,78.97
2019-04-07T05:10:06.763Z,79.38
2019-04-07T05:11:05.900Z,79.28
2019-04-07T05:12:06.789Z,78.91
2019-04-07T05:13:05.877Z,77.64
2019-04-07T05:14:05.935Z,77.09
2019-04-07T05:15:06.344Z,76.27
2019-04-07T05:16:05.849Z,75.82
2019-04-07T05:17:06.283Z,75.86
2019-04-07T05:18:06.439Z,76.17
2019-04-07T05:19:06.206Z,77.29
2019-04-07T05:20:05.899Z,77.40
2019-04-07T05:21:05.825Z,76.99
2019-04-07T05:22:06.011Z,76.37
2019-04-07T05:23:05.762Z,75.56
2019-04-07T05:24:05.768Z,76.89
2019-04-07T05:25:06.862Z,75.62
2019-04-07T05:26:05.787Z,76.75
2019-04-07T05:27:06.398Z,76.58
2019-04-07T05:28:05.893Z,76.54
2019-04-07T05:29:05.941Z,77.77
2019-04-07T05:30:05.685Z,77.20
2019-04-07T05:31:05.757Z,77.20
2019-04-07T05:32:05.738Z,76.14
2019-04-07T05:33:05.670Z,76.65
2019-04-07T05:34:06.515Z,76.85
2019-04-07T05:35:06.015Z,76.24
2019-04-07T05:36:05.937Z,77.47
2019-04-07T05:37:05.608Z,77.26
2019-04-07T05:38:06.820Z,76.54
2019-04-07T05:39:05.605Z,76.14
2019-04-07T05:40:05.840Z,75.79
2019-04-07T05:41:05.580Z,74.56
2019-04-07T05:42:05.555Z,74.46
2019-04-07T05:43:06.312Z,74.87
2019-04-07T05:44:06.186Z,75.38
2019-04-07T05:45:06.446Z,75.18
2019-04-07T05:46:07.353Z,75.18
2019-04-07T05:47:06.044Z,75.45
2019-04-07T05:48:05.495Z,75.14
2019-04-07T05:49:05.503Z,74.02
2019-04-07T05:50:06.186Z,74.63
2019-04-07T05:51:05.570Z,74.73
2019-04-07T05:52:06.038Z,74.29
2019-04-07T05:53:06.823Z,72.75
2019-04-07T05:54:07.150Z,73.36
2019-04-07T05:55:05.407Z,73.47
2019-04-07T05:56:06.078Z,73.03
2019-04-07T05:57:05.504Z,73.23
2019-04-07T05:58:07.291Z,73.74
2019-04-07T05:59:06.078Z,72.11
2019-04-07T06:00:05.847Z,72.17
2019-04-07T06:01:05.344Z,72.58
2019-04-07T06:02:05.333Z,72.89
2019-04-07T06:03:07.894Z,72.99
2019-04-07T06:04:05.635Z,72.21
2019-04-07T06:05:05.408Z,72.48
2019-04-07T06:06:05.449Z,72.89
2019-04-07T06:07:05.888Z,71.77
2019-04-07T06:08:21.070Z,73.03
2019-04-07T06:09:06.413Z,71.87
2019-04-07T06:10:05.424Z,72.28
2019-04-07T06:11:05.252Z,72.58
2019-04-07T06:12:09.065Z,72.79
2019-04-07T06:13:05.397Z,72.38
2019-04-07T06:14:05.718Z,72.48
2019-04-07T06:15:05.315Z,72.58
2019-04-07T06:16:05.361Z,72.58
2019-04-07T06:17:05.162Z,72.14
2019-04-07T06:18:05.196Z,72.24
2019-04-07T06:19:07.889Z,70.61
2019-04-07T06:20:05.193Z,71.01
2019-04-07T06:21:05.117Z,70.61
2019-04-07T06:22:07.517Z,71.63
2019-04-07T06:23:05.098Z,71.33
2019-04-07T06:24:05.137Z,71.42
2019-04-07T06:25:05.869Z,71.33
2019-04-07T06:26:09.316Z,70.40
2019-04-07T06:27:06.056Z,70.68
2019-04-07T06:28:05.459Z,71.09
2019-04-07T06:29:05.040Z,70.47
2019-04-07T06:30:05.028Z,70.47
2019-04-07T06:31:05.012Z,71.09
2019-04-07T06:32:07.737Z,71.50
2019-04-07T06:33:06.942Z,72.31
2019-04-07T06:34:08.146Z,70.54
2019-04-07T06:35:05.978Z,71.56
2019-04-07T06:36:05.063Z,72.92
2019-04-07T06:37:05.628Z,74.05
2019-04-07T06:38:06.642Z,74.05
2019-04-07T06:39:04.920Z,74.35
2019-04-07T06:40:05.604Z,74.56
2019-04-07T06:41:04.896Z,75.07
2019-04-07T06:42:05.825Z,74.97
2019-04-07T06:43:06.412Z,75.37
2019-04-07T06:44:12.953Z,75.51
2019-04-07T06:45:06.302Z,75.68
2019-04-07T06:46:04.927Z,75.37
2019-04-07T06:47:04.830Z,75.54
2019-04-07T06:48:07.802Z,75.04
2019-04-07T06:49:04.809Z,74.83
2019-04-07T06:50:05.653Z,72.55
2019-04-07T06:51:04.998Z,73.57
2019-04-07T06:52:04.914Z,73.74
2019-04-07T06:53:05.360Z,74.62
2019-04-07T06:54:04.847Z,72.17
2019-04-07T06:55:04.731Z,72.04
2019-04-07T06:56:05.219Z,72.04
2019-04-07T06:57:06.340Z,71.77
2019-04-07T06:58:07.582Z,72.04
2019-04-07T06:59:04.697Z,70.31
2019-04-07T07:00:04.686Z,71.73
2019-04-07T07:01:04.733Z,72.28
2019-04-07T07:02:05.425Z,72.75
2019-04-07T07:03:04.680Z,70.41
2019-04-07T07:04:08.607Z,71.70
2019-04-07T07:05:05.623Z,72.08
2019-04-07T07:06:04.747Z,70.95
2019-04-07T07:07:06.258Z,70.45
2019-04-07T07:08:05.176Z,70.48
2019-04-07T07:09:04.595Z,71.39
2019-04-07T07:10:06.355Z,71.33
2019-04-07T07:11:05.803Z,67.97
2019-04-07T07:12:05.098Z,67.94
2019-04-07T07:13:09.568Z,66.24
2019-04-07T07:14:06.171Z,66.61
2019-04-07T07:15:04.676Z,66.58
2019-04-07T07:16:08.805Z,65.20
2019-04-07T07:17:05.511Z,64.62
2019-04-07T07:18:04.685Z,65.63
2019-04-07T07:19:05.208Z,67.39
2019-04-07T07:20:05.690Z,67.60
2019-04-07T07:21:05.089Z,68.01
2019-04-07T07:22:10.035Z,67.49
2019-04-07T07:23:05.898Z,68.01
2019-04-07T07:24:04.946Z,69.63
2019-04-07T07:25:05.167Z,68.82
2019-04-07T07:26:04.469Z,67.32
2019-04-07T07:27:07.282Z,67.02
2019-04-07T07:28:04.512Z,65.59
2019-04-07T07:29:06.415Z,65.59
2019-04-07T07:30:04.350Z,66.82
2019-04-07T07:31:04.391Z,67.12
2019-04-07T07:32:04.942Z,67.90
2019-04-07T07:33:07.358Z,67.69
2019-04-07T07:34:05.396Z,67.26
2019-04-07T07:35:05.063Z,65.53
2019-04-07T07:36:04.496Z,66.75
2019-04-07T07:37:05.153Z,66.07
2019-04-07T07:38:04.920Z,67.32
2019-04-07T07:39:08.732Z,67.80
2019-04-07T07:40:07.912Z,67.29
2019-04-07T07:41:04.790Z,66.27
2019-04-07T07:42:04.382Z,65.66
2019-04-07T07:43:04.429Z,66.78
2019-04-07T07:44:07.480Z,66.58
2019-04-07T07:45:08.270Z,66.68
2019-04-07T07:46:05.602Z,66.14
2019-04-07T07:47:04.176Z,65.83
2019-04-07T07:48:04.230Z,65.73
2019-04-07T07:49:04.251Z,64.92
2019-04-07T07:50:05.408Z,65.63
2019-04-07T07:51:06.880Z,66.04
2019-04-07T07:52:04.877Z,66.14
2019-04-07T07:53:04.731Z,65.73
2019-04-07T07:54:04.652Z,65.53
2019-04-07T07:55:04.085Z,65.73
2019-04-07T07:56:08.431Z,65.53
2019-04-07T07:57:05.056Z,65.63
2019-04-07T07:58:04.118Z,66.65
2019-04-07T07:59:04.515Z,65.60
2019-04-07T08:00:06.115Z,65.43
2019-04-07T08:01:04.316Z,65.83
2019-04-07T08:02:03.996Z,65.73
2019-04-07T08:03:04.801Z,65.33
2019-04-07T08:04:03.970Z,64.99
2019-04-07T08:05:03.997Z,66.14
2019-04-07T08:06:07.399Z,67.77
2019-04-07T08:07:04.331Z,69.32
2019-04-07T08:08:04.692Z,70.78
2019-04-07T08:09:11.933Z,71.91
2019-04-07T08:10:04.933Z,72.04
2019-04-07T08:11:04.544Z,72.69
2019-04-07T08:12:03.889Z,72.45
2019-04-07T08:13:07.447Z,72.28
2019-04-07T08:14:03.887Z,72.69
2019-04-07T08:15:03.855Z,72.79
2019-04-07T08:16:03.843Z,73.16
2019-04-07T08:17:04.149Z,73.06
2019-04-07T08:18:07.160Z,72.21
2019-04-07T08:19:04.018Z,72.41
2019-04-07T08:20:03.797Z,72.08
2019-04-07T08:21:04.339Z,70.65
2019-04-07T08:22:03.781Z,71.06
2019-04-07T08:23:03.760Z,68.82
2019-04-07T08:24:03.762Z,67.49
2019-04-07T08:25:04.132Z,66.85
2019-04-07T08:26:03.945Z,67.97
2019-04-07T08:27:04.075Z,68.35
2019-04-07T08:28:04.664Z,68.82
2019-04-07T08:29:06.743Z,67.71
2019-04-07T08:30:03.855Z,66.79
2019-04-07T08:31:04.398Z,66.18
2019-04-07T08:32:04.200Z,63.84
2019-04-07T08:33:03.650Z,64.35
2019-04-07T08:34:03.824Z,64.52
2019-04-07T08:35:05.624Z,65.44
2019-04-07T08:36:04.351Z,65.51
2019-04-07T08:37:03.802Z,63.78
2019-04-07T08:38:04.552Z,63.34
2019-04-07T08:39:03.848Z,63.14
2019-04-07T08:40:07.168Z,63.34
2019-04-07T08:41:04.181Z,62.10
2019-04-07T08:42:09.613Z,62.91
2019-04-07T08:43:04.537Z,62.10
2019-04-07T08:44:03.692Z,63.32
2019-04-07T08:45:03.569Z,62.71
2019-04-07T08:46:04.756Z,62.71
2019-04-07T08:47:03.496Z,63.42
2019-04-07T08:48:04.146Z,63.39
2019-04-07T08:49:03.656Z,63.26
2019-04-07T08:50:03.462Z,63.43
2019-04-07T08:51:03.656Z,62.65
2019-04-07T08:52:08.609Z,63.69
2019-04-07T08:53:04.430Z,64.81
2019-04-07T08:54:04.700Z,64.70
2019-04-07T08:55:03.408Z,65.07
2019-04-07T08:56:03.805Z,66.32
2019-04-07T08:57:03.448Z,67.19
2019-04-07T08:58:04.671Z,67.80
2019-04-07T08:59:03.879Z,68.41
2019-04-07T09:00:03.947Z,68.44
2019-04-07T09:01:03.425Z,69.09
2019-04-07T09:02:03.374Z,68.99
2019-04-07T09:03:09.736Z,68.88
2019-04-07T09:04:04.486Z,69.53
2019-04-07T09:05:03.289Z,70.10
2019-04-07T09:06:04.572Z,70.41
2019-04-07T09:07:04.381Z,68.58
2019-04-07T09:08:05.875Z,68.24
2019-04-07T09:09:04.016Z,67.97
2019-04-07T09:10:03.650Z,68.62
2019-04-07T09:11:03.341Z,69.40
2019-04-07T09:12:03.904Z,68.88
2019-04-07T09:13:06.606Z,68.99
2019-04-07T09:14:07.017Z,68.38
2019-04-07T09:15:05.130Z,69.09
2019-04-07T09:16:03.601Z,68.48
2019-04-07T09:17:04.664Z,69.53
2019-04-07T09:18:03.372Z,70.01
2019-04-07T09:19:06.032Z,68.58
2019-04-07T09:20:07.563Z,69.16
2019-04-07T09:21:04.590Z,67.80
2019-04-07T09:22:03.104Z,67.60
2019-04-07T09:23:03.089Z,67.94
2019-04-07T09:24:03.797Z,68.52
2019-04-07T09:25:06.270Z,68.24
2019-04-07T09:26:04.079Z,68.58
2019-04-07T09:27:03.380Z,69.29
2019-04-07T09:28:03.262Z,69.49
2019-04-07T09:29:03.023Z,69.12
2019-04-07T09:30:05.871Z,70.75
2019-04-07T09:31:04.426Z,70.75
2019-04-07T09:32:02.987Z,70.34
2019-04-07T09:33:03.351Z,71.09
2019-04-07T09:34:03.051Z,71.50
2019-04-07T09:35:04.143Z,72.45
2019-04-07T09:36:03.563Z,72.24
2019-04-07T09:37:03.314Z,72.24
2019-04-07T09:38:03.162Z,72.14
2019-04-07T09:39:03.917Z,73.06
2019-04-07T09:40:04.443Z,73.47
2019-04-07T09:41:03.564Z,73.67
2019-04-07T09:42:03.147Z,74.28
2019-04-07T09:43:03.142Z,73.67
2019-04-07T09:44:03.766Z,72.69
2019-04-07T09:45:03.327Z,73.19
2019-04-07T09:46:03.504Z,73.71
2019-04-07T09:47:02.832Z,73.30
2019-04-07T09:48:02.845Z,74.21
2019-04-07T09:49:03.450Z,73.60
2019-04-07T09:50:03.593Z,73.50
2019-04-07T09:51:06.901Z,73.91
2019-04-07T09:52:02.844Z,73.40
2019-04-07T09:53:02.764Z,74.32
2019-04-07T09:54:03.028Z,74.62
2019-04-07T09:55:02.760Z,74.21
2019-04-07T09:56:02.795Z,74.32
2019-04-07T09:57:05.941Z,75.78
2019-04-07T09:58:02.697Z,76.70
2019-04-07T09:59:03.515Z,77.11
2019-04-07T10:00:02.903Z,77.51
2019-04-07T10:01:02.690Z,78.67
2019-04-07T10:02:05.906Z,79.39
2019-04-07T10:03:05.959Z,78.98
2019-04-07T10:04:07.074Z,79.69
2019-04-07T10:05:02.628Z,79.96
2019-04-07T10:06:02.614Z,79.45
2019-04-07T10:07:02.706Z,79.66
2019-04-07T10:08:03.306Z,79.66
2019-04-07T10:09:03.321Z,80.27
2019-04-07T10:10:10.270Z,79.49
2019-04-07T10:11:04.224Z,81.43
2019-04-07T10:12:02.839Z,81.63
2019-04-07T10:13:03.125Z,82.14
2019-04-07T10:14:03.333Z,81.39
2019-04-07T10:15:02.520Z,80.94
2019-04-07T10:16:02.507Z,80.23
2019-04-07T10:17:02.944Z,79.82
2019-04-07T10:18:02.499Z,79.68
2019-04-07T10:19:03.124Z,80.77
2019-04-07T10:20:02.509Z,80.05
2019-04-07T10:21:03.227Z,80.66
2019-04-07T10:22:03.497Z,79.71
2019-04-07T10:23:03.010Z,79.50
2019-04-07T10:24:02.811Z,79.61
2019-04-07T10:25:02.486Z,80.63
2019-04-07T10:26:03.986Z,79.81
2019-04-07T10:27:02.413Z,79.20
2019-04-07T10:28:02.956Z,78.39
2019-04-07T10:29:02.807Z,78.08
2019-04-07T10:30:02.551Z,78.08
2019-04-07T10:31:02.480Z,78.55
2019-04-07T10:32:02.486Z,77.74
2019-04-07T10:33:03.094Z,76.62
2019-04-07T10:34:03.055Z,76.92
2019-04-07T10:35:02.559Z,75.50
2019-04-07T10:36:03.315Z,75.26
2019-04-07T10:37:04.685Z,75.02
2019-04-07T10:38:02.624Z,73.77
2019-04-07T10:39:03.440Z,71.80
2019-04-07T10:40:03.108Z,70.45
2019-04-07T10:41:03.057Z,70.15
2019-04-07T10:42:02.678Z,70.48
2019-04-07T10:43:03.054Z,70.18
2019-04-07T10:44:02.273Z,68.97
2019-04-07T10:45:02.267Z,65.75
2019-04-07T10:46:02.388Z,62.09
2019-04-07T10:47:02.566Z,59.72
2019-04-07T10:48:03.072Z,58.37
2019-04-07T10:49:04.310Z,55.55
2019-04-07T10:50:07.044Z,54.30
2019-04-07T10:51:04.395Z,53.32
2019-04-07T10:52:02.871Z,51.84
2019-04-07T10:53:02.705Z,50.27
2019-04-07T10:54:02.621Z,48.78
2019-04-07T10:55:02.871Z,46.70
2019-04-07T10:56:02.323Z,49.15
2019-04-07T10:57:02.289Z,47.17
2019-04-07T10:58:02.046Z,47.89
2019-04-07T10:59:02.039Z,48.92
2019-04-07T11:00:02.066Z,50.37
2019-04-07T11:01:02.863Z,52.12
2019-04-07T11:02:02.510Z,51.97
2019-04-07T11:03:02.108Z,53.34
2019-04-07T11:04:02.000Z,54.50
2019-04-07T11:05:02.026Z,54.88
2019-04-07T11:06:01.987Z,56.77
2019-04-07T11:07:02.039Z,58.42
2019-04-07T11:08:02.465Z,59.28
2019-04-07T11:09:03.482Z,58.98
2019-04-07T11:10:03.511Z,58.30
2019-04-07T11:11:01.895Z,59.61
2019-04-07T11:12:01.943Z,59.66
2019-04-07T11:13:01.876Z,60.13
2019-04-07T11:14:01.872Z,61.05
2019-04-07T11:15:02.526Z,63.99
2019-04-07T11:16:01.840Z,64.76
2019-04-07T11:17:02.467Z,63.32
2019-04-07T11:18:01.821Z,64.56
2019-04-07T11:19:02.033Z,67.83
2019-04-07T11:20:02.887Z,68.43
2019-04-07T11:21:02.203Z,69.71
2019-04-07T11:22:01.781Z,68.80
2019-04-07T11:23:02.012Z,65.03
2019-04-07T11:24:01.757Z,65.25
2019-04-07T11:25:01.741Z,68.29
2019-04-07T11:26:02.482Z,67.99
2019-04-07T11:27:02.962Z,69.85
2019-04-07T11:28:02.586Z,67.53
2019-04-07T11:29:02.712Z,67.77
2019-04-07T11:30:01.698Z,63.37
2019-04-07T11:31:02.263Z,60.58
2019-04-07T11:32:01.830Z,60.48
2019-04-07T11:33:01.901Z,62.84
2019-04-07T11:34:01.646Z,59.66
2019-04-07T11:35:01.748Z,60.71
2019-04-07T11:36:02.402Z,61.35
2019-04-07T11:37:01.804Z,63.39
2019-04-07T11:38:01.615Z,62.25
2019-04-07T11:39:02.490Z,61.92
2019-04-07T11:40:02.216Z,59.24
2019-04-07T11:41:01.594Z,56.07
2019-04-07T11:42:01.557Z,56.27
2019-04-07T11:43:02.230Z,56.74
2019-04-07T11:44:01.990Z,53.32
2019-04-07T11:45:01.548Z,54.53
2019-04-07T11:46:03.306Z,56.45
2019-04-07T11:47:02.236Z,57.81
2019-04-07T11:48:01.497Z,59.35
2019-04-07T11:49:02.461Z,58.67
2019-04-07T11:50:01.555Z,60.93
2019-04-07T11:51:02.084Z,57.83
2019-04-07T11:52:01.717Z,54.10
2019-04-07T11:53:01.840Z,49.87
2019-04-07T11:54:01.673Z,52.09
2019-04-07T11:55:02.133Z,52.09
2019-04-07T11:56:06.913Z,51.61
2019-04-07T11:57:03.327Z,53.95
2019-04-07T11:58:11.516Z,52.59
2019-04-07T11:59:02.678Z,55.21
2019-04-07T12:00:02.343Z,57.07
2019-04-07T12:01:01.348Z,55.54
2019-04-07T12:02:01.926Z,54.03
2019-04-07T12:03:01.368Z,54.68
2019-04-07T12:04:02.407Z,54.99
2019-04-07T12:05:01.602Z,55.26
2019-04-07T12:06:01.402Z,53.90
2019-04-07T12:07:01.304Z,51.99
2019-04-07T12:08:01.728Z,53.83
2019-04-07T12:09:02.162Z,54.20
2019-04-07T12:10:01.269Z,52.59
2019-04-07T12:11:04.942Z,53.42
2019-04-07T12:12:01.239Z,53.32
2019-04-07T12:13:01.226Z,53.34
2019-04-07T12:14:01.213Z,53.12
2019-04-07T12:15:02.157Z,54.18
2019-04-07T12:16:02.025Z,57.94
2019-04-07T12:17:05.742Z,57.68
2019-04-07T12:18:02.175Z,57.03
2019-04-07T12:19:01.156Z,54.30
2019-04-07T12:20:01.349Z,55.74
2019-04-07T12:21:04.171Z,57.96
2019-04-07T12:22:01.253Z,58.11
2019-04-07T12:23:01.595Z,58.35
2019-04-07T12:24:01.619Z,54.55
2019-04-07T12:25:03.205Z,56.49
2019-04-07T12:26:04.261Z,55.49
2019-04-07T12:27:01.925Z,55.89
2019-04-07T12:28:01.076Z,55.69
2019-04-07T12:29:01.548Z,54.38
2019-04-07T12:30:01.270Z,52.89
2019-04-07T12:31:01.095Z,51.84
2019-04-07T12:32:02.364Z,49.37
2019-04-07T12:33:01.184Z,46.14
2019-04-07T12:34:01.074Z,45.47
2019-04-07T12:35:01.726Z,44.79
2019-04-07T12:36:01.967Z,45.73
2019-04-07T12:37:03.066Z,45.07
2019-04-07T12:38:02.708Z,46.30
2019-04-07T12:39:02.832Z,46.39
2019-04-07T12:40:01.248Z,47.16
2019-04-07T12:41:13.402Z,48.25
2019-04-07T12:42:05.204Z,50.18
2019-04-07T12:43:01.191Z,50.21
2019-04-07T12:44:01.643Z,49.51
2019-04-07T12:45:01.796Z,50.59
2019-04-07T12:46:01.288Z,50.68
2019-04-07T12:47:01.767Z,49.54
2019-04-07T12:48:01.466Z,49.57
2019-04-07T12:49:05.109Z,47.23
2019-04-07T12:50:02.099Z,49.51
2019-04-07T12:51:00.912Z,49.60
2019-04-07T12:52:00.810Z,52.34